Farmington Hills, Michigan
Current Conditions -  °F | °C
As of 3:55 PM on Tuesday 25 Nov 2014 (Local Time) from KVLL Reporting Station
Overcast Overcast  
Wind Chill: 27°   Ceiling: 3300
Heat Index: 33°   Visibility: 10mi
Dew Point: 23°   Wind: 7mph
Humidity: 65%   Direction: 250°WSW
Pressure: 30.08"   Gusts: NA
Location:  42.4647°N, 83.3764°W
Report Text: KVLL 252055Z AUTO 25006KT 220V280 10SM OVC033 01/M05 A3008 RMK AO2 T00071052
Loading
Personal Weather Stations






























Interactive Weather Map New forecast layout! Learn more

10-Day Weather Forecast

Advertisements
Track Severe Weather on mobile